sensor_id;sensor_type;location;lat;lon;timestamp;P1;durP1;ratioP1;P2;durP2;ratioP2
12768;SDS011;6448;48.916;8.990;2023-07-13T00:00:39;1.58;;;1.10;;
12768;SDS011;6448;48.916;8.990;2023-07-13T00:01:40;1.63;;;1.10;;
12768;SDS011;6448;48.916;8.990;2023-07-13T00:02:43;1.17;;;1.08;;
12768;SDS011;6448;48.916;8.990;2023-07-13T00:03:44;1.10;;;0.93;;
12768;SDS011;6448;48.916;8.990;2023-07-13T00:04:46;1.00;;;0.90;;
12768;SDS011;6448;48.916;8.990;2023-07-13T00:05:52;1.20;;;0.98;;
12768;SDS011;6448;48.916;8.990;2023-07-13T00:06:58;1.10;;;1.00;;
12768;SDS011;6448;48.916;8.990;2023-07-13T00:07:59;1.20;;;1.10;;
12768;SDS011;6448;48.916;8.990;2023-07-13T00:09:01;1.88;;;1.08;;
12768;SDS011;6448;48.916;8.990;2023-07-13T00:10:02;1.27;;;1.00;;
12768;SDS011;6448;48.916;8.990;2023-07-13T00:11:04;1.17;;;1.00;;
12768;SDS011;6448;48.916;8.990;2023-07-13T00:12:21;2.30;;;0.95;;
12768;SDS011;6448;48.916;8.990;2023-07-13T00:13:24;1.83;;;1.05;;
12768;SDS011;6448;48.916;8.990;2023-07-13T00:14:25;2.70;;;1.02;;
12768;SDS011;6448;48.916;8.990;2023-07-13T00:15:28;1.73;;;1.00;;
12768;SDS011;6448;48.916;8.990;2023-07-13T00:16:32;1.45;;;1.00;;
12768;SDS011;6448;48.916;8.990;2023-07-13T00:17:34;2.17;;;1.00;;
12768;SDS011;6448;48.916;8.990;2023-07-13T00:18:35;1.08;;;0.82;;
12768;SDS011;6448;48.916;8.990;2023-07-13T00:19:38;1.90;;;1.02;;
12768;SDS011;6448;48.916;8.990;2023-07-13T00:20:38;1.15;;;1.05;;
12768;SDS011;6448;48.916;8.990;2023-07-13T00:21:42;1.20;;;0.80;;
12768;SDS011;6448;48.916;8.990;2023-07-13T00:22:43;1.00;;;0.90;;
12768;SDS011;6448;48.916;8.990;2023-07-13T00:23:44;1.25;;;0.90;;
12768;SDS011;6448;48.916;8.990;2023-07-13T00:24:46;1.50;;;0.90;;
12768;SDS011;6448;48.916;8.990;2023-07-13T00:25:46;1.75;;;1.00;;
12768;SDS011;6448;48.916;8.990;2023-07-13T00:26:50;1.17;;;1.00;;
12768;SDS011;6448;48.916;8.990;2023-07-13T00:27:51;1.08;;;0.90;;
12768;SDS011;6448;48.916;8.990;2023-07-13T00:28:53;1.23;;;0.90;;
12768;SDS011;6448;48.916;8.990;2023-07-13T00:29:54;1.58;;;1.08;;
12768;SDS011;6448;48.916;8.990;2023-07-13T00:30:55;1.00;;;0.90;;
12768;SDS011;6448;48.916;8.990;2023-07-13T00:31:58;1.08;;;0.98;;
12768;SDS011;6448;48.916;8.990;2023-07-13T00:32:59;0.80;;;0.80;;
12768;SDS011;6448;48.916;8.990;2023-07-13T00:34:01;1.40;;;0.90;;
12768;SDS011;6448;48.916;8.990;2023-07-13T00:35:02;1.10;;;1.00;;
12768;SDS011;6448;48.916;8.990;2023-07-13T00:36:04;0.93;;;0.80;;
12768;SDS011;6448;48.916;8.990;2023-07-13T00:37:06;1.08;;;0.90;;
12768;SDS011;6448;48.916;8.990;2023-07-13T00:38:09;1.77;;;1.08;;
12768;SDS011;6448;48.916;8.990;2023-07-13T00:39:09;1.42;;;0.90;;
12768;SDS011;6448;48.916;8.990;2023-07-13T00:40:11;1.80;;;0.90;;
12768;SDS011;6448;48.916;8.990;2023-07-13T00:41:14;1.10;;;0.90;;
12768;SDS011;6448;48.916;8.990;2023-07-13T00:42:15;1.23;;;0.90;;
12768;SDS011;6448;48.916;8.990;2023-07-13T00:43:17;1.30;;;0.88;;
12768;SDS011;6448;48.916;8.990;2023-07-13T00:44:19;1.20;;;1.00;;
12768;SDS011;6448;48.916;8.990;2023-07-13T00:47:02;1.10;;;1.00;;
12768;SDS011;6448;48.916;8.990;2023-07-13T00:48:03;1.63;;;0.90;;
12768;SDS011;6448;48.916;8.990;2023-07-13T00:49:06;1.00;;;0.90;;
12768;SDS011;6448;48.916;8.990;2023-07-13T00:50:11;1.25;;;1.00;;
12768;SDS011;6448;48.916;8.990;2023-07-13T00:51:17;1.48;;;1.00;;
12768;SDS011;6448;48.916;8.990;2023-07-13T00:52:23;1.38;;;0.90;;
12768;SDS011;6448;48.916;8.990;2023-07-13T00:53:25;1.33;;;0.98;;
12768;SDS011;6448;48.916;8.990;2023-07-13T00:54:28;1.10;;;0.95;;
12768;SDS011;6448;48.916;8.990;2023-07-13T00:55:33;1.00;;;0.90;;
12768;SDS011;6448;48.916;8.990;2023-07-13T00:56:34;1.77;;;1.00;;
12768;SDS011;6448;48.916;8.990;2023-07-13T00:57:36;1.30;;;0.90;;
12768;SDS011;6448;48.916;8.990;2023-07-13T00:58:37;1.63;;;1.02;;
12768;SDS011;6448;48.916;8.990;2023-07-13T00:59:39;1.20;;;0.95;;
12768;SDS011;6448;48.916;8.990;2023-07-13T01:00:43;1.75;;;1.00;;
12768;SDS011;6448;48.916;8.990;2023-07-13T01:01:47;1.10;;;1.00;;
12768;SDS011;6448;48.916;8.990;2023-07-13T01:02:49;1.23;;;0.93;;
12768;SDS011;6448;48.916;8.990;2023-07-13T01:03:51;0.93;;;0.82;;
12768;SDS011;6448;48.916;8.990;2023-07-13T01:04:54;1.27;;;1.00;;
12768;SDS011;6448;48.916;8.990;2023-07-13T01:05:56;1.20;;;1.00;;
12768;SDS011;6448;48.916;8.990;2023-07-13T01:06:58;1.25;;;0.90;;
12768;SDS011;6448;48.916;8.990;2023-07-13T01:08:00;1.20;;;1.00;;
12768;SDS011;6448;48.916;8.990;2023-07-13T01:09:04;1.73;;;0.90;;
12768;SDS011;6448;48.916;8.990;2023-07-13T01:10:08;1.10;;;0.98;;
12768;SDS011;6448;48.916;8.990;2023-07-13T01:11:10;1.40;;;1.00;;
12768;SDS011;6448;48.916;8.990;2023-07-13T01:12:11;1.10;;;1.00;;
12768;SDS011;6448;48.916;8.990;2023-07-13T01:13:13;0.80;;;0.80;;
12768;SDS011;6448;48.916;8.990;2023-07-13T01:14:14;1.35;;;0.93;;
12768;SDS011;6448;48.916;8.990;2023-07-13T01:15:35;1.00;;;0.90;;
12768;SDS011;6448;48.916;8.990;2023-07-13T01:16:38;1.00;;;0.90;;
12768;SDS011;6448;48.916;8.990;2023-07-13T01:17:43;1.40;;;1.00;;
12768;SDS011;6448;48.916;8.990;2023-07-13T01:18:44;1.50;;;0.90;;
12768;SDS011;6448;48.916;8.990;2023-07-13T01:19:46;1.10;;;1.00;;
12768;SDS011;6448;48.916;8.990;2023-07-13T01:20:51;1.30;;;0.98;;
12768;SDS011;6448;48.916;8.990;2023-07-13T01:21:53;1.10;;;0.90;;
12768;SDS011;6448;48.916;8.990;2023-07-13T01:22:54;1.50;;;1.10;;
12768;SDS011;6448;48.916;8.990;2023-07-13T01:23:56;1.15;;;0.93;;
12768;SDS011;6448;48.916;8.990;2023-07-13T01:24:57;1.42;;;1.00;;
12768;SDS011;6448;48.916;8.990;2023-07-13T01:25:59;1.35;;;1.00;;
12768;SDS011;6448;48.916;8.990;2023-07-13T01:27:00;0.95;;;0.90;;
12768;SDS011;6448;48.916;8.990;2023-07-13T01:28:01;1.48;;;1.10;;
12768;SDS011;6448;48.916;8.990;2023-07-13T01:29:05;1.02;;;0.90;;
12768;SDS011;6448;48.916;8.990;2023-07-13T01:30:08;1.67;;;1.00;;
12768;SDS011;6448;48.916;8.990;2023-07-13T01:31:10;1.27;;;1.00;;
12768;SDS011;6448;48.916;8.990;2023-07-13T01:32:12;2.00;;;1.08;;
12768;SDS011;6448;48.916;8.990;2023-07-13T01:33:23;1.08;;;0.90;;
12768;SDS011;6448;48.916;8.990;2023-07-13T01:34:24;1.90;;;0.90;;
12768;SDS011;6448;48.916;8.990;2023-07-13T01:35:25;2.10;;;0.95;;
12768;SDS011;6448;48.916;8.990;2023-07-13T01:36:28;1.00;;;0.90;;
12768;SDS011;6448;48.916;8.990;2023-07-13T01:37:31;1.60;;;1.00;;
12768;SDS011;6448;48.916;8.990;2023-07-13T01:38:34;1.00;;;0.90;;
12768;SDS011;6448;48.916;8.990;2023-07-13T01:39:36;1.00;;;0.90;;
12768;SDS011;6448;48.916;8.990;2023-07-13T01:40:38;1.40;;;0.88;;
12768;SDS011;6448;48.916;8.990;2023-07-13T01:41:39;1.42;;;0.90;;
12768;SDS011;6448;48.916;8.990;2023-07-13T01:42:41;0.80;;;0.80;;
12768;SDS011;6448;48.916;8.990;2023-07-13T01:43:42;1.15;;;0.98;;
12768;SDS011;6448;48.916;8.990;2023-07-13T01:44:43;1.13;;;1.00;;
12768;SDS011;6448;48.916;8.990;2023-07-13T01:45:45;1.33;;;0.90;;
12768;SDS011;6448;48.916;8.990;2023-07-13T01:46:46;1.10;;;0.90;;
12768;SDS011;6448;48.916;8.990;2023-07-13T01:47:48;1.05;;;0.88;;
12768;SDS011;6448;48.916;8.990;2023-07-13T01:48:49;1.50;;;1.00;;
12768;SDS011;6448;48.916;8.990;2023-07-13T01:49:51;1.10;;;0.98;;
12768;SDS011;6448;48.916;8.990;2023-07-13T01:50:52;1.20;;;1.00;;
12768;SDS011;6448;48.916;8.990;2023-07-13T01:51:55;0.80;;;0.80;;
12768;SDS011;6448;48.916;8.990;2023-07-13T01:52:56;1.00;;;0.90;;
12768;SDS011;6448;48.916;8.990;2023-07-13T01:53:57;1.17;;;1.00;;
12768;SDS011;6448;48.916;8.990;2023-07-13T01:54:58;1.33;;;0.90;;
12768;SDS011;6448;48.916;8.990;2023-07-13T01:56:00;1.83;;;0.97;;
12768;SDS011;6448;48.916;8.990;2023-07-13T01:57:01;1.30;;;0.93;;
12768;SDS011;6448;48.916;8.990;2023-07-13T01:58:04;1.30;;;1.00;;
12768;SDS011;6448;48.916;8.990;2023-07-13T01:59:05;1.25;;;1.00;;
12768;SDS011;6448;48.916;8.990;2023-07-13T02:00:08;1.23;;;0.98;;
12768;SDS011;6448;48.916;8.990;2023-07-13T02:01:17;1.10;;;1.00;;
12768;SDS011;6448;48.916;8.990;2023-07-13T02:02:19;2.20;;;1.00;;
12768;SDS011;6448;48.916;8.990;2023-07-13T02:03:19;1.33;;;1.00;;
12768;SDS011;6448;48.916;8.990;2023-07-13T02:04:21;1.40;;;0.90;;
12768;SDS011;6448;48.916;8.990;2023-07-13T02:05:23;1.00;;;0.90;;
12768;SDS011;6448;48.916;8.990;2023-07-13T02:06:24;2.47;;;1.10;;
12768;SDS011;6448;48.916;8.990;2023-07-13T02:07:27;1.23;;;0.90;;
12768;SDS011;6448;48.916;8.990;2023-07-13T02:08:28;1.42;;;0.93;;
12768;SDS011;6448;48.916;8.990;2023-07-13T02:09:29;1.37;;;1.10;;
12768;SDS011;6448;48.916;8.990;2023-07-13T02:10:31;1.30;;;1.00;;
12768;SDS011;6448;48.916;8.990;2023-07-13T02:11:32;1.45;;;1.00;;
12768;SDS011;6448;48.916;8.990;2023-07-13T02:12:34;1.25;;;1.00;;
12768;SDS011;6448;48.916;8.990;2023-07-13T02:13:35;2.50;;;1.00;;
12768;SDS011;6448;48.916;8.990;2023-07-13T02:14:37;0.98;;;0.90;;
12768;SDS011;6448;48.916;8.990;2023-07-13T02:15:38;1.65;;;1.00;;
12768;SDS011;6448;48.916;8.990;2023-07-13T02:16:41;1.95;;;0.88;;
12768;SDS011;6448;48.916;8.990;2023-07-13T02:17:41;1.67;;;1.07;;
12768;SDS011;6448;48.916;8.990;2023-07-13T02:18:43;1.00;;;0.90;;
12768;SDS011;6448;48.916;8.990;2023-07-13T02:19:44;1.50;;;1.00;;
12768;SDS011;6448;48.916;8.990;2023-07-13T02:20:46;1.40;;;1.13;;
12768;SDS011;6448;48.916;8.990;2023-07-13T02:21:47;1.40;;;1.10;;
12768;SDS011;6448;48.916;8.990;2023-07-13T02:22:50;1.45;;;0.93;;
12768;SDS011;6448;48.916;8.990;2023-07-13T02:23:53;2.20;;;0.90;;
12768;SDS011;6448;48.916;8.990;2023-07-13T02:24:55;1.23;;;1.00;;
12768;SDS011;6448;48.916;8.990;2023-07-13T02:25:56;1.10;;;0.90;;
12768;SDS011;6448;48.916;8.990;2023-07-13T02:26:58;1.08;;;0.90;;
12768;SDS011;6448;48.916;8.990;2023-07-13T02:27:59;1.42;;;0.93;;
12768;SDS011;6448;48.916;8.990;2023-07-13T02:29:02;1.10;;;1.00;;
12768;SDS011;6448;48.916;8.990;2023-07-13T02:30:03;1.20;;;1.10;;
12768;SDS011;6448;48.916;8.990;2023-07-13T02:31:06;1.90;;;1.00;;
12768;SDS011;6448;48.916;8.990;2023-07-13T02:32:07;1.10;;;1.00;;
12768;SDS011;6448;48.916;8.990;2023-07-13T02:33:09;1.73;;;1.20;;
12768;SDS011;6448;48.916;8.990;2023-07-13T02:34:10;1.30;;;1.00;;
12768;SDS011;6448;48.916;8.990;2023-07-13T02:35:12;1.17;;;0.90;;
12768;SDS011;6448;48.916;8.990;2023-07-13T02:36:13;1.23;;;0.90;;
12768;SDS011;6448;48.916;8.990;2023-07-13T02:37:18;1.60;;;1.00;;
12768;SDS011;6448;48.916;8.990;2023-07-13T02:38:20;0.95;;;0.90;;
12768;SDS011;6448;48.916;8.990;2023-07-13T02:39:22;1.30;;;1.00;;
12768;SDS011;6448;48.916;8.990;2023-07-13T02:40:23;1.00;;;0.90;;
12768;SDS011;6448;48.916;8.990;2023-07-13T02:41:26;0.98;;;0.90;;
12768;SDS011;6448;48.916;8.990;2023-07-13T02:42:27;1.25;;;1.00;;
12768;SDS011;6448;48.916;8.990;2023-07-13T02:43:28;1.27;;;0.88;;
12768;SDS011;6448;48.916;8.990;2023-07-13T02:44:30;1.35;;;0.95;;
12768;SDS011;6448;48.916;8.990;2023-07-13T02:45:31;1.10;;;0.80;;
12768;SDS011;6448;48.916;8.990;2023-07-13T02:46:32;1.33;;;0.93;;
12768;SDS011;6448;48.916;8.990;2023-07-13T02:47:36;1.20;;;0.98;;
12768;SDS011;6448;48.916;8.990;2023-07-13T02:48:37;1.20;;;1.10;;
12768;SDS011;6448;48.916;8.990;2023-07-13T02:49:40;1.88;;;0.98;;
12768;SDS011;6448;48.916;8.990;2023-07-13T02:50:40;1.00;;;0.90;;
12768;SDS011;6448;48.916;8.990;2023-07-13T02:51:42;1.30;;;0.93;;
12768;SDS011;6448;48.916;8.990;2023-07-13T02:52:43;1.10;;;1.00;;
12768;SDS011;6448;48.916;8.990;2023-07-13T02:53:46;1.48;;;1.05;;
12768;SDS011;6448;48.916;8.990;2023-07-13T02:54:47;1.30;;;0.90;;
12768;SDS011;6448;48.916;8.990;2023-07-13T02:55:49;1.13;;;0.90;;
12768;SDS011;6448;48.916;8.990;2023-07-13T02:56:50;1.00;;;0.90;;
12768;SDS011;6448;48.916;8.990;2023-07-13T02:57:52;1.50;;;1.17;;
12768;SDS011;6448;48.916;8.990;2023-07-13T02:58:54;0.82;;;0.82;;
12768;SDS011;6448;48.916;8.990;2023-07-13T02:59:55;1.13;;;0.98;;
12768;SDS011;6448;48.916;8.990;2023-07-13T03:00:57;1.02;;;0.90;;
12768;SDS011;6448;48.916;8.990;2023-07-13T03:01:58;1.20;;;0.90;;
12768;SDS011;6448;48.916;8.990;2023-07-13T03:03:02;5.18;;;1.20;;
12768;SDS011;6448;48.916;8.990;2023-07-13T03:04:03;0.98;;;0.98;;
12768;SDS011;6448;48.916;8.990;2023-07-13T03:05:08;1.00;;;0.85;;
12768;SDS011;6448;48.916;8.990;2023-07-13T03:06:13;1.10;;;1.00;;
12768;SDS011;6448;48.916;8.990;2023-07-13T03:07:22;1.08;;;0.95;;
12768;SDS011;6448;48.916;8.990;2023-07-13T03:08:25;1.10;;;1.00;;
12768;SDS011;6448;48.916;8.990;2023-07-13T03:09:29;1.10;;;1.00;;
12768;SDS011;6448;48.916;8.990;2023-07-13T03:10:33;0.83;;;0.83;;
12768;SDS011;6448;48.916;8.990;2023-07-13T03:11:35;1.02;;;0.93;;
12768;SDS011;6448;48.916;8.990;2023-07-13T03:12:51;1.63;;;1.00;;
12768;SDS011;6448;48.916;8.990;2023-07-13T03:13:57;1.00;;;0.88;;
12768;SDS011;6448;48.916;8.990;2023-07-13T03:14:59;1.02;;;0.93;;
12768;SDS011;6448;48.916;8.990;2023-07-13T03:16:01;1.43;;;1.07;;
12768;SDS011;6448;48.916;8.990;2023-07-13T03:17:04;0.90;;;0.85;;
12768;SDS011;6448;48.916;8.990;2023-07-13T03:18:08;0.82;;;0.82;;
12768;SDS011;6448;48.916;8.990;2023-07-13T03:19:09;1.10;;;1.00;;
12768;SDS011;6448;48.916;8.990;2023-07-13T03:20:11;1.10;;;1.00;;
12768;SDS011;6448;48.916;8.990;2023-07-13T03:21:12;1.05;;;0.90;;
12768;SDS011;6448;48.916;8.990;2023-07-13T03:22:14;1.50;;;1.20;;
12768;SDS011;6448;48.916;8.990;2023-07-13T03:23:16;2.75;;;1.92;;
12768;SDS011;6448;48.916;8.990;2023-07-13T03:24:18;4.38;;;3.20;;
12768;SDS011;6448;48.916;8.990;2023-07-13T03:25:20;4.50;;;3.20;;
12768;SDS011;6448;48.916;8.990;2023-07-13T03:26:23;5.28;;;3.45;;
12768;SDS011;6448;48.916;8.990;2023-07-13T03:27:24;3.97;;;3.00;;
12768;SDS011;6448;48.916;8.990;2023-07-13T03:28:25;3.75;;;3.00;;
12768;SDS011;6448;48.916;8.990;2023-07-13T03:29:28;2.80;;;2.25;;
12768;SDS011;6448;48.916;8.990;2023-07-13T03:30:30;2.20;;;1.98;;
12768;SDS011;6448;48.916;8.990;2023-07-13T03:31:33;2.15;;;1.70;;
12768;SDS011;6448;48.916;8.990;2023-07-13T03:32:36;1.45;;;1.27;;
12768;SDS011;6448;48.916;8.990;2023-07-13T03:33:37;1.40;;;1.10;;
12768;SDS011;6448;48.916;8.990;2023-07-13T03:34:38;1.33;;;1.17;;
12768;SDS011;6448;48.916;8.990;2023-07-13T03:35:40;1.23;;;1.10;;
12768;SDS011;6448;48.916;8.990;2023-07-13T03:36:42;1.33;;;1.15;;
12768;SDS011;6448;48.916;8.990;2023-07-13T03:37:46;1.03;;;0.93;;
12768;SDS011;6448;48.916;8.990;2023-07-13T03:38:52;1.40;;;0.90;;
12768;SDS011;6448;48.916;8.990;2023-07-13T03:39:59;1.17;;;1.08;;
12768;SDS011;6448;48.916;8.990;2023-07-13T03:41:02;1.48;;;1.00;;
12768;SDS011;6448;48.916;8.990;2023-07-13T03:42:04;1.10;;;1.00;;
12768;SDS011;6448;48.916;8.990;2023-07-13T03:43:07;0.90;;;0.90;;
12768;SDS011;6448;48.916;8.990;2023-07-13T03:44:09;2.63;;;1.00;;
12768;SDS011;6448;48.916;8.990;2023-07-13T03:45:10;1.33;;;0.98;;
12768;SDS011;6448;48.916;8.990;2023-07-13T03:46:11;1.35;;;1.10;;
12768;SDS011;6448;48.916;8.990;2023-07-13T03:47:12;1.10;;;1.00;;
12768;SDS011;6448;48.916;8.990;2023-07-13T03:48:13;1.45;;;1.00;;
12768;SDS011;6448;48.916;8.990;2023-07-13T03:49:16;1.40;;;1.00;;
12768;SDS011;6448;48.916;8.990;2023-07-13T03:50:16;1.48;;;1.00;;
12768;SDS011;6448;48.916;8.990;2023-07-13T03:51:18;1.10;;;1.00;;
12768;SDS011;6448;48.916;8.990;2023-07-13T03:52:19;3.20;;;1.00;;
12768;SDS011;6448;48.916;8.990;2023-07-13T03:53:22;1.15;;;1.00;;
12768;SDS011;6448;48.916;8.990;2023-07-13T03:54:23;1.00;;;0.90;;
12768;SDS011;6448;48.916;8.990;2023-07-13T03:55:25;1.05;;;0.95;;
12768;SDS011;6448;48.916;8.990;2023-07-13T03:56:28;1.45;;;0.90;;
12768;SDS011;6448;48.916;8.990;2023-07-13T03:57:33;2.45;;;1.10;;
12768;SDS011;6448;48.916;8.990;2023-07-13T03:58:36;1.40;;;1.10;;
12768;SDS011;6448;48.916;8.990;2023-07-13T03:59:45;1.38;;;1.00;;
12768;SDS011;6448;48.916;8.990;2023-07-13T04:00:46;1.20;;;1.10;;
12768;SDS011;6448;48.916;8.990;2023-07-13T04:01:47;1.10;;;1.00;;
12768;SDS011;6448;48.916;8.990;2023-07-13T04:02:49;1.00;;;0.90;;
12768;SDS011;6448;48.916;8.990;2023-07-13T04:03:50;1.10;;;1.00;;
12768;SDS011;6448;48.916;8.990;2023-07-13T04:04:56;1.25;;;1.00;;
12768;SDS011;6448;48.916;8.990;2023-07-13T04:05:58;1.20;;;0.90;;
12768;SDS011;6448;48.916;8.990;2023-07-13T04:07:00;1.70;;;1.00;;
12768;SDS011;6448;48.916;8.990;2023-07-13T04:08:01;0.93;;;0.88;;
12768;SDS011;6448;48.916;8.990;2023-07-13T04:09:07;1.10;;;1.00;;
12768;SDS011;6448;48.916;8.990;2023-07-13T04:10:10;1.20;;;1.10;;
12768;SDS011;6448;48.916;8.990;2023-07-13T04:11:12;1.67;;;1.02;;
12768;SDS011;6448;48.916;8.990;2023-07-13T04:12:14;1.15;;;1.00;;
12768;SDS011;6448;48.916;8.990;2023-07-13T04:13:16;1.45;;;0.90;;
12768;SDS011;6448;48.916;8.990;2023-07-13T04:14:17;1.20;;;1.10;;
12768;SDS011;6448;48.916;8.990;2023-07-13T04:15:20;1.80;;;1.08;;
12768;SDS011;6448;48.916;8.990;2023-07-13T04:16:21;1.40;;;1.00;;
12768;SDS011;6448;48.916;8.990;2023-07-13T04:17:23;1.20;;;1.10;;
12768;SDS011;6448;48.916;8.990;2023-07-13T04:18:24;0.97;;;0.87;;
12768;SDS011;6448;48.916;8.990;2023-07-13T04:19:29;1.25;;;1.10;;
12768;SDS011;6448;48.916;8.990;2023-07-13T04:20:31;1.13;;;1.02;;
12768;SDS011;6448;48.916;8.990;2023-07-13T04:21:32;1.27;;;1.00;;
12768;SDS011;6448;48.916;8.990;2023-07-13T04:22:34;1.23;;;0.93;;
12768;SDS011;6448;48.916;8.990;2023-07-13T04:23:35;1.33;;;1.13;;
12768;SDS011;6448;48.916;8.990;2023-07-13T04:24:36;1.30;;;1.20;;
12768;SDS011;6448;48.916;8.990;2023-07-13T04:25:38;1.58;;;1.40;;
12768;SDS011;6448;48.916;8.990;2023-07-13T04:26:39;2.00;;;1.60;;
12768;SDS011;6448;48.916;8.990;2023-07-13T04:27:42;3.15;;;2.85;;
12768;SDS011;6448;48.916;8.990;2023-07-13T04:28:43;4.27;;;3.87;;
12768;SDS011;6448;48.916;8.990;2023-07-13T04:29:44;4.43;;;4.03;;
12768;SDS011;6448;48.916;8.990;2023-07-13T04:30:45;3.13;;;2.85;;
12768;SDS011;6448;48.916;8.990;2023-07-13T04:31:47;2.30;;;2.10;;
12768;SDS011;6448;48.916;8.990;2023-07-13T04:32:48;2.00;;;1.80;;
12768;SDS011;6448;48.916;8.990;2023-07-13T04:33:52;1.73;;;1.50;;
12768;SDS011;6448;48.916;8.990;2023-07-13T04:34:53;1.95;;;1.65;;
12768;SDS011;6448;48.916;8.990;2023-07-13T04:35:56;2.53;;;1.67;;
12768;SDS011;6448;48.916;8.990;2023-07-13T04:36:57;1.70;;;1.60;;
12768;SDS011;6448;48.916;8.990;2023-07-13T04:37:59;1.92;;;1.70;;
12768;SDS011;6448;48.916;8.990;2023-07-13T04:38:59;2.03;;;1.80;;
12768;SDS011;6448;48.916;8.990;2023-07-13T04:40:01;2.10;;;1.90;;
12768;SDS011;6448;48.916;8.990;2023-07-13T04:41:04;1.85;;;1.75;;
12768;SDS011;6448;48.916;8.990;2023-07-13T04:42:07;2.17;;;1.98;;
12768;SDS011;6448;48.916;8.990;2023-07-13T04:43:09;2.30;;;2.10;;
12768;SDS011;6448;48.916;8.990;2023-07-13T04:44:11;2.70;;;2.20;;
12768;SDS011;6448;48.916;8.990;2023-07-13T04:45:13;2.40;;;2.20;;
12768;SDS011;6448;48.916;8.990;2023-07-13T04:46:16;1.90;;;1.80;;
12768;SDS011;6448;48.916;8.990;2023-07-13T04:47:18;2.17;;;1.98;;
12768;SDS011;6448;48.916;8.990;2023-07-13T04:48:20;2.00;;;1.90;;
12768;SDS011;6448;48.916;8.990;2023-07-13T04:49:21;1.95;;;1.83;;
12768;SDS011;6448;48.916;8.990;2023-07-13T04:50:23;1.77;;;1.67;;
12768;SDS011;6448;48.916;8.990;2023-07-13T04:51:23;1.60;;;1.50;;
12768;SDS011;6448;48.916;8.990;2023-07-13T04:52:26;1.60;;;1.50;;
12768;SDS011;6448;48.916;8.990;2023-07-13T04:53:27;1.80;;;1.30;;
12768;SDS011;6448;48.916;8.990;2023-07-13T04:54:29;1.67;;;1.30;;
12768;SDS011;6448;48.916;8.990;2023-07-13T04:55:30;1.40;;;1.30;;
12768;SDS011;6448;48.916;8.990;2023-07-13T04:56:32;2.03;;;1.15;;
12768;SDS011;6448;48.916;8.990;2023-07-13T04:57:33;1.65;;;1.10;;
12768;SDS011;6448;48.916;8.990;2023-07-13T04:58:36;1.30;;;1.08;;
12768;SDS011;6448;48.916;8.990;2023-07-13T04:59:36;1.60;;;1.05;;
12768;SDS011;6448;48.916;8.990;2023-07-13T05:00:38;1.05;;;0.98;;
12768;SDS011;6448;48.916;8.990;2023-07-13T05:01:39;1.63;;;1.05;;
12768;SDS011;6448;48.916;8.990;2023-07-13T05:02:43;1.60;;;1.00;;
12768;SDS011;6448;48.916;8.990;2023-07-13T05:03:44;1.38;;;1.10;;
12768;SDS011;6448;48.916;8.990;2023-07-13T05:04:46;1.55;;;1.13;;
12768;SDS011;6448;48.916;8.990;2023-07-13T05:05:54;1.02;;;0.98;;
12768;SDS011;6448;48.916;8.990;2023-07-13T05:06:57;1.17;;;1.02;;
12768;SDS011;6448;48.916;8.990;2023-07-13T05:07:57;1.20;;;1.00;;
12768;SDS011;6448;48.916;8.990;2023-07-13T05:08:59;1.20;;;0.90;;
12768;SDS011;6448;48.916;8.990;2023-07-13T05:10:00;1.73;;;1.10;;
12768;SDS011;6448;48.916;8.990;2023-07-13T05:11:04;1.88;;;1.00;;
12768;SDS011;6448;48.916;8.990;2023-07-13T05:12:06;1.30;;;1.10;;
12768;SDS011;6448;48.916;8.990;2023-07-13T05:13:09;1.38;;;0.98;;
12768;SDS011;6448;48.916;8.990;2023-07-13T05:14:11;1.15;;;1.00;;
12768;SDS011;6448;48.916;8.990;2023-07-13T05:15:13;1.00;;;0.90;;
12768;SDS011;6448;48.916;8.990;2023-07-13T05:16:15;1.65;;;0.90;;
12768;SDS011;6448;48.916;8.990;2023-07-13T05:17:16;1.30;;;1.00;;
12768;SDS011;6448;48.916;8.990;2023-07-13T05:18:17;1.10;;;1.00;;
12768;SDS011;6448;48.916;8.990;2023-07-13T05:19:19;1.10;;;1.00;;
12768;SDS011;6448;48.916;8.990;2023-07-13T05:20:20;1.20;;;1.00;;
12768;SDS011;6448;48.916;8.990;2023-07-13T05:21:21;1.20;;;1.10;;
12768;SDS011;6448;48.916;8.990;2023-07-13T05:22:22;1.63;;;1.13;;
12768;SDS011;6448;48.916;8.990;2023-07-13T05:23:24;1.17;;;1.00;;
12768;SDS011;6448;48.916;8.990;2023-07-13T05:24:25;1.38;;;1.10;;
12768;SDS011;6448;48.916;8.990;2023-07-13T05:25:26;1.08;;;0.98;;
12768;SDS011;6448;48.916;8.990;2023-07-13T05:26:27;1.27;;;1.10;;
12768;SDS011;6448;48.916;8.990;2023-07-13T05:27:28;1.45;;;1.00;;
12768;SDS011;6448;48.916;8.990;2023-07-13T05:28:30;1.60;;;1.00;;
12768;SDS011;6448;48.916;8.990;2023-07-13T05:29:34;1.10;;;0.95;;
12768;SDS011;6448;48.916;8.990;2023-07-13T05:30:34;1.23;;;1.10;;
12768;SDS011;6448;48.916;8.990;2023-07-13T05:31:36;1.23;;;1.10;;
12768;SDS011;6448;48.916;8.990;2023-07-13T05:32:37;2.03;;;1.20;;
12768;SDS011;6448;48.916;8.990;2023-07-13T05:33:39;0.95;;;0.90;;
12768;SDS011;6448;48.916;8.990;2023-07-13T05:34:40;1.20;;;1.05;;
12768;SDS011;6448;48.916;8.990;2023-07-13T05:35:42;1.77;;;1.05;;
12768;SDS011;6448;48.916;8.990;2023-07-13T05:36:42;1.95;;;1.02;;
12768;SDS011;6448;48.916;8.990;2023-07-13T05:37:44;1.20;;;1.10;;
12768;SDS011;6448;48.916;8.990;2023-07-13T05:38:45;1.85;;;1.10;;
12768;SDS011;6448;48.916;8.990;2023-07-13T05:39:47;1.10;;;0.93;;
12768;SDS011;6448;48.916;8.990;2023-07-13T05:40:47;1.20;;;1.00;;
12768;SDS011;6448;48.916;8.990;2023-07-13T05:41:49;1.25;;;1.00;;
12768;SDS011;6448;48.916;8.990;2023-07-13T05:42:50;1.40;;;1.00;;
12768;SDS011;6448;48.916;8.990;2023-07-13T05:43:52;1.50;;;1.20;;
12768;SDS011;6448;48.916;8.990;2023-07-13T05:44:54;1.10;;;1.00;;
12768;SDS011;6448;48.916;8.990;2023-07-13T05:45:56;1.23;;;1.13;;
12768;SDS011;6448;48.916;8.990;2023-07-13T05:46:57;1.20;;;1.00;;
12768;SDS011;6448;48.916;8.990;2023-07-13T05:47:59;1.20;;;1.10;;
12768;SDS011;6448;48.916;8.990;2023-07-13T05:48:59;1.20;;;1.10;;
12768;SDS011;6448;48.916;8.990;2023-07-13T05:50:01;1.48;;;1.00;;
12768;SDS011;6448;48.916;8.990;2023-07-13T05:51:02;1.10;;;1.00;;
12768;SDS011;6448;48.916;8.990;2023-07-13T05:52:05;1.30;;;1.03;;
12768;SDS011;6448;48.916;8.990;2023-07-13T05:53:06;1.23;;;1.00;;
12768;SDS011;6448;48.916;8.990;2023-07-13T05:54:08;1.20;;;1.10;;
12768;SDS011;6448;48.916;8.990;2023-07-13T05:55:09;1.20;;;1.00;;
12768;SDS011;6448;48.916;8.990;2023-07-13T05:56:11;1.48;;;1.17;;
12768;SDS011;6448;48.916;8.990;2023-07-13T05:57:11;1.30;;;1.10;;
12768;SDS011;6448;48.916;8.990;2023-07-13T05:58:13;1.35;;;1.10;;
12768;SDS011;6448;48.916;8.990;2023-07-13T05:59:14;1.38;;;1.08;;
12768;SDS011;6448;48.916;8.990;2023-07-13T06:00:17;1.13;;;0.98;;
12768;SDS011;6448;48.916;8.990;2023-07-13T06:01:18;1.08;;;1.00;;
12768;SDS011;6448;48.916;8.990;2023-07-13T06:02:22;1.17;;;1.00;;
12768;SDS011;6448;48.916;8.990;2023-07-13T06:03:23;1.50;;;1.20;;
12768;SDS011;6448;48.916;8.990;2023-07-13T06:04:24;1.20;;;1.10;;
12768;SDS011;6448;48.916;8.990;2023-07-13T06:05:25;1.27;;;1.10;;
12768;SDS011;6448;48.916;8.990;2023-07-13T06:06:28;1.10;;;1.00;;
12768;SDS011;6448;48.916;8.990;2023-07-13T06:07:30;1.63;;;1.10;;
12768;SDS011;6448;48.916;8.990;2023-07-13T06:08:31;1.75;;;1.00;;
12768;SDS011;6448;48.916;8.990;2023-07-13T06:09:32;1.17;;;1.00;;
12768;SDS011;6448;48.916;8.990;2023-07-13T06:10:35;1.67;;;1.00;;
12768;SDS011;6448;48.916;8.990;2023-07-13T06:11:36;1.38;;;1.00;;
12768;SDS011;6448;48.916;8.990;2023-07-13T06:12:38;1.10;;;1.00;;
12768;SDS011;6448;48.916;8.990;2023-07-13T06:13:39;1.70;;;1.08;;
12768;SDS011;6448;48.916;8.990;2023-07-13T06:14:41;1.27;;;1.00;;
12768;SDS011;6448;48.916;8.990;2023-07-13T06:15:44;1.20;;;1.10;;
12768;SDS011;6448;48.916;8.990;2023-07-13T06:16:49;1.25;;;1.15;;
12768;SDS011;6448;48.916;8.990;2023-07-13T06:17:50;1.10;;;1.00;;
12768;SDS011;6448;48.916;8.990;2023-07-13T06:18:51;1.20;;;1.10;;
12768;SDS011;6448;48.916;8.990;2023-07-13T06:19:52;1.33;;;1.17;;
12768;SDS011;6448;48.916;8.990;2023-07-13T06:20:54;1.23;;;1.10;;
12768;SDS011;6448;48.916;8.990;2023-07-13T06:21:55;1.67;;;1.10;;